createdAt,value
2022-11-23T00:01:43.265Z,17.10
2022-11-23T00:04:12.861Z,17.10
2022-11-23T00:06:40.979Z,17.10
2022-11-23T00:09:09.113Z,17.10
2022-11-23T00:11:37.091Z,17.20
2022-11-23T00:14:06.687Z,17.30
2022-11-23T00:16:34.569Z,17.40
2022-11-23T00:19:03.010Z,17.30
2022-11-23T00:21:31.781Z,17.30
2022-11-23T00:23:59.740Z,17.30
2022-11-23T00:26:27.896Z,17.30
2022-11-23T00:28:55.748Z,17.30
2022-11-23T00:31:29.467Z,17.20
2022-11-23T00:33:57.614Z,17.20
2022-11-23T00:36:26.166Z,17.20
2022-11-23T00:38:54.556Z,17.10
2022-11-23T00:41:23.298Z,17.10
2022-11-23T00:43:51.228Z,17.10
2022-11-23T00:46:19.890Z,17.10
2022-11-23T00:48:49.948Z,17.10
2022-11-23T00:51:18.545Z,17.10
2022-11-23T00:53:46.489Z,17.10
2022-11-23T00:56:14.400Z,17.10
2022-11-23T00:58:42.703Z,17.10
2022-11-23T01:01:11.519Z,17.10
2022-11-23T01:03:41.036Z,17.10
2022-11-23T01:06:11.254Z,17.10
2022-11-23T01:08:39.236Z,17.10
2022-11-23T01:11:07.916Z,17.00
2022-11-23T01:13:36.595Z,17.10
2022-11-23T01:16:06.444Z,17.20
2022-11-23T01:18:34.321Z,17.30
2022-11-23T01:21:02.837Z,17.50
2022-11-23T01:23:33.305Z,17.50
2022-11-23T01:26:05.513Z,17.50
2022-11-23T01:28:33.427Z,17.40
2022-11-23T01:31:05.872Z,17.40
2022-11-23T01:33:34.017Z,17.30
2022-11-23T01:36:02.112Z,17.20
2022-11-23T01:38:29.997Z,17.20
2022-11-23T01:41:01.096Z,17.20
2022-11-23T01:43:28.986Z,17.20
2022-11-23T01:45:58.198Z,17.10
2022-11-23T01:48:28.280Z,17.10
2022-11-23T01:50:56.232Z,17.10
2022-11-23T01:53:24.123Z,17.10
2022-11-23T01:55:52.227Z,17.10
2022-11-23T01:58:22.321Z,17.20
2022-11-23T02:00:50.763Z,17.20
2022-11-23T02:03:18.760Z,17.20
2022-11-23T02:05:48.791Z,17.20
2022-11-23T02:08:16.976Z,17.20
2022-11-23T02:10:46.475Z,17.10
2022-11-23T02:13:14.495Z,17.10
2022-11-23T02:15:43.885Z,17.10
2022-11-23T02:18:15.279Z,17.10
2022-11-23T02:20:44.476Z,17.10
2022-11-23T02:23:20.049Z,17.00
2022-11-23T02:26:01.560Z,17.00
2022-11-23T02:28:31.119Z,17.00
2022-11-23T02:30:59.109Z,17.10
2022-11-23T02:33:27.015Z,17.20
2022-11-23T02:35:56.214Z,17.20
2022-11-23T02:38:24.235Z,17.20
2022-11-23T02:40:52.165Z,17.20
2022-11-23T02:43:24.428Z,17.20
2022-11-23T02:45:56.814Z,17.20
2022-11-23T02:48:26.367Z,17.10
2022-11-23T02:50:54.314Z,17.10
2022-11-23T02:53:22.424Z,17.10
2022-11-23T02:55:50.321Z,17.10
2022-11-23T02:58:18.965Z,17.00
2022-11-23T03:00:49.300Z,17.10
2022-11-23T03:03:21.069Z,17.20
2022-11-23T03:05:48.967Z,17.20
2022-11-23T03:08:16.878Z,17.20
2022-11-23T03:10:44.883Z,17.20
2022-11-23T03:13:12.908Z,17.20
2022-11-23T03:15:41.767Z,17.10
2022-11-23T03:18:12.258Z,17.10
2022-11-23T03:20:40.393Z,17.10
2022-11-23T03:23:08.316Z,17.10
2022-11-23T03:25:36.354Z,17.10
2022-11-23T03:28:06.138Z,17.00
2022-11-23T03:30:34.740Z,17.00
2022-11-23T03:33:05.456Z,17.10
2022-11-23T03:35:34.817Z,17.20
2022-11-23T03:38:17.267Z,17.20
2022-11-23T03:40:46.300Z,17.20
2022-11-23T03:43:21.400Z,17.20
2022-11-23T03:45:49.671Z,17.10
2022-11-23T03:48:18.012Z,17.10
2022-11-23T03:50:47.991Z,17.10
2022-11-23T03:53:16.643Z,17.10
2022-11-23T03:55:46.782Z,17.10
2022-11-23T03:58:15.835Z,17.00
2022-11-23T04:00:44.047Z,17.00
2022-11-23T04:03:14.613Z,17.00
2022-11-23T04:06:13.358Z,17.00
2022-11-23T04:09:19.585Z,17.00
2022-11-23T04:12:18.640Z,17.00
2022-11-23T04:14:46.550Z,17.00
2022-11-23T04:17:14.470Z,17.00
2022-11-23T04:19:42.550Z,17.00
2022-11-23T04:22:12.091Z,17.10
2022-11-23T04:24:43.198Z,17.20
2022-11-23T04:27:11.143Z,17.30
2022-11-23T04:29:39.719Z,17.20
2022-11-23T04:32:08.184Z,17.20
2022-11-23T04:34:38.118Z,17.20
2022-11-23T04:37:11.831Z,17.10
2022-11-23T04:39:43.869Z,17.10
2022-11-23T04:42:19.341Z,17.10
2022-11-23T04:44:52.697Z,17.10
2022-11-23T04:47:21.160Z,17.10
2022-11-23T04:49:50.004Z,17.00
2022-11-23T04:52:19.200Z,17.00
2022-11-23T04:54:50.082Z,17.00
2022-11-23T04:57:18.247Z,17.00
2022-11-23T04:59:47.351Z,17.00
2022-11-23T05:02:16.475Z,17.00
2022-11-23T05:04:55.100Z,17.00
2022-11-23T05:07:28.234Z,17.00
2022-11-23T05:10:03.224Z,17.00
2022-11-23T05:12:32.719Z,17.00
2022-11-23T05:15:02.347Z,17.00
2022-11-23T05:17:36.187Z,17.00
2022-11-23T05:20:08.486Z,17.00
2022-11-23T05:22:39.719Z,17.00
2022-11-23T05:25:11.964Z,17.10
2022-11-23T05:27:40.313Z,17.20
2022-11-23T05:30:10.246Z,17.30
2022-11-23T05:32:38.785Z,17.30
2022-11-23T05:35:08.742Z,17.30
2022-11-23T05:37:38.393Z,17.20
2022-11-23T05:40:12.269Z,17.20
2022-11-23T05:42:40.320Z,17.20
2022-11-23T05:45:16.676Z,17.20
2022-11-23T05:47:51.302Z,17.20
2022-11-23T05:50:25.830Z,17.10
2022-11-23T05:53:13.708Z,17.10
2022-11-23T05:55:45.898Z,17.10
2022-11-23T05:58:14.849Z,17.10
2022-11-23T06:00:42.886Z,17.10
2022-11-23T06:03:10.967Z,17.10
2022-11-23T06:05:39.828Z,17.10
2022-11-23T06:08:07.942Z,17.00
2022-11-23T06:10:35.975Z,17.00
2022-11-23T06:13:05.819Z,17.10
2022-11-23T06:15:34.628Z,17.20
2022-11-23T06:18:04.410Z,17.20
2022-11-23T06:20:40.643Z,17.20
2022-11-23T06:23:08.574Z,17.20
2022-11-23T06:25:38.426Z,17.20
2022-11-23T06:28:13.361Z,17.20
2022-11-23T06:30:46.810Z,17.10
2022-11-23T06:33:15.352Z,17.10
2022-11-23T06:35:58.841Z,17.10
2022-11-23T06:38:32.068Z,17.10
2022-11-23T06:41:04.225Z,17.00
2022-11-23T06:43:34.008Z,17.00
2022-11-23T06:46:04.586Z,17.00
2022-11-23T06:48:33.526Z,17.10
2022-11-23T06:51:02.189Z,17.10
2022-11-23T06:53:32.335Z,17.00
2022-11-23T06:56:04.917Z,17.00
2022-11-23T06:58:34.974Z,17.10
2022-11-23T07:01:06.539Z,17.20
2022-11-23T07:03:40.783Z,17.30
2022-11-23T07:06:20.900Z,17.30
2022-11-23T07:08:50.443Z,17.30
2022-11-23T07:11:29.670Z,17.20
2022-11-23T07:13:58.969Z,17.20
2022-11-23T07:16:29.267Z,17.20
2022-11-23T07:18:58.805Z,17.20
2022-11-23T07:21:27.269Z,17.20
2022-11-23T07:23:55.145Z,17.10
2022-11-23T07:26:23.040Z,17.10
2022-11-23T07:28:50.912Z,17.00
2022-11-23T07:31:20.240Z,17.00
2022-11-23T07:33:48.724Z,17.00
2022-11-23T07:36:18.063Z,17.00
2022-11-23T07:38:46.971Z,17.00
2022-11-23T07:41:17.457Z,17.00
2022-11-23T07:44:06.676Z,17.00
2022-11-23T07:46:35.918Z,17.00
2022-11-23T07:49:04.308Z,17.20
2022-11-23T07:51:32.316Z,17.30
2022-11-23T07:54:00.196Z,17.30
2022-11-23T07:56:28.121Z,17.20
2022-11-23T07:58:56.023Z,17.20
2022-11-23T08:01:23.867Z,17.20
2022-11-23T08:03:53.097Z,17.20
2022-11-23T08:06:21.037Z,17.20
2022-11-23T08:08:48.932Z,17.10
2022-11-23T08:11:18.666Z,17.10
2022-11-23T08:13:46.539Z,17.10
2022-11-23T08:16:14.549Z,17.10
2022-11-23T08:18:42.449Z,17.10
2022-11-23T08:21:11.707Z,17.00
2022-11-23T08:23:39.606Z,17.00
2022-11-23T08:26:12.004Z,17.00
2022-11-23T08:28:41.443Z,17.00
2022-11-23T08:31:09.967Z,17.00
2022-11-23T08:33:37.916Z,17.00
2022-11-23T08:36:06.476Z,17.10
2022-11-23T08:38:35.746Z,17.20
2022-11-23T08:41:03.884Z,17.20
2022-11-23T08:43:31.822Z,17.20
2022-11-23T08:46:04.624Z,17.10
2022-11-23T08:48:34.745Z,17.10
2022-11-23T08:51:04.315Z,17.10
2022-11-23T08:53:32.287Z,17.10
2022-11-23T08:56:03.228Z,17.10
2022-11-23T08:58:31.270Z,17.10
2022-11-23T09:00:59.131Z,17.00
2022-11-23T09:03:27.013Z,17.00
2022-11-23T09:05:55.369Z,17.00
2022-11-23T09:08:23.425Z,17.00
2022-11-23T09:10:51.351Z,17.00
2022-11-23T09:13:20.637Z,17.00
2022-11-23T09:15:48.501Z,17.00
2022-11-23T09:18:16.409Z,17.00
2022-11-23T09:20:44.291Z,17.00
2022-11-23T09:23:14.365Z,17.10
2022-11-23T09:25:43.189Z,17.30
2022-11-23T09:28:12.576Z,17.30
2022-11-23T09:30:42.039Z,17.30
2022-11-23T09:33:09.933Z,17.20
2022-11-23T09:35:43.518Z,17.20
2022-11-23T09:38:11.776Z,17.20
2022-11-23T09:40:40.618Z,17.20
2022-11-23T09:43:27.610Z,17.20
2022-11-23T09:45:57.341Z,17.10
2022-11-23T09:48:38.739Z,17.10
2022-11-23T09:51:07.358Z,17.10
2022-11-23T09:53:38.365Z,17.10
2022-11-23T09:56:07.089Z,17.10
2022-11-23T09:58:37.705Z,17.10
2022-11-23T10:01:08.370Z,17.00
2022-11-23T10:03:42.655Z,17.00
2022-11-23T10:06:20.766Z,17.00
2022-11-23T10:08:58.740Z,17.00
2022-11-23T10:11:32.740Z,17.20
2022-11-23T10:14:06.841Z,17.30
2022-11-23T10:16:39.419Z,17.30
2022-11-23T10:19:12.973Z,17.20
2022-11-23T10:21:43.940Z,17.20
2022-11-23T10:24:19.993Z,17.20
2022-11-23T10:26:48.989Z,17.20
2022-11-23T10:29:18.580Z,17.20
2022-11-23T10:31:53.985Z,17.20
2022-11-23T10:34:28.113Z,17.10
2022-11-23T10:36:56.141Z,17.10
2022-11-23T10:39:25.960Z,17.10
2022-11-23T10:41:54.088Z,17.10
2022-11-23T10:44:32.472Z,17.10
2022-11-23T10:47:01.914Z,17.10
2022-11-23T10:49:30.576Z,17.10
2022-11-23T10:51:59.049Z,17.00
2022-11-23T10:54:32.218Z,17.00
2022-11-23T10:57:01.540Z,17.10
2022-11-23T10:59:35.303Z,17.20
2022-11-23T11:02:15.582Z,17.30
2022-11-23T11:04:43.551Z,17.30
2022-11-23T11:07:24.889Z,17.30
2022-11-23T11:09:53.726Z,17.20
2022-11-23T11:12:21.682Z,17.20
2022-11-23T11:15:10.915Z,17.20
2022-11-23T11:17:42.051Z,17.20
2022-11-23T11:20:33.220Z,17.20
2022-11-23T11:23:02.524Z,17.10
2022-11-23T11:25:32.245Z,17.10
2022-11-23T11:28:00.174Z,17.10
2022-11-23T11:30:32.606Z,17.10
2022-11-23T11:33:05.217Z,17.10
2022-11-23T11:35:34.067Z,17.10
2022-11-23T11:38:03.376Z,17.10
2022-11-23T11:40:33.300Z,17.10
2022-11-23T11:43:03.631Z,17.20
2022-11-23T11:45:34.086Z,17.20
2022-11-23T11:48:05.665Z,17.30
2022-11-23T11:50:37.216Z,17.30
2022-11-23T11:53:07.210Z,17.30
2022-11-23T11:55:45.183Z,17.20
2022-11-23T11:58:15.294Z,17.20
2022-11-23T12:00:45.260Z,17.20
2022-11-23T12:03:21.225Z,17.20
2022-11-23T12:05:50.433Z,17.20
2022-11-23T12:08:21.435Z,17.10
2022-11-23T12:10:50.841Z,17.10
2022-11-23T12:13:19.665Z,17.10
2022-11-23T12:15:50.392Z,17.20
2022-11-23T12:18:58.844Z,17.30
2022-11-23T12:21:47.162Z,17.30
2022-11-23T12:24:21.750Z,17.30
2022-11-23T12:26:54.246Z,17.20
2022-11-23T12:29:36.497Z,17.20
2022-11-23T12:32:09.136Z,17.20
2022-11-23T12:34:46.302Z,17.20
2022-11-23T12:37:32.390Z,17.20
2022-11-23T12:40:30.785Z,17.10
2022-11-23T12:43:01.719Z,17.10
2022-11-23T12:45:46.024Z,17.10
2022-11-23T12:48:22.444Z,17.10
2022-11-23T12:50:56.197Z,17.10
2022-11-23T12:53:32.660Z,17.10
2022-11-23T12:56:04.969Z,17.10
2022-11-23T12:58:34.302Z,17.10
2022-11-23T13:01:04.133Z,17.10
2022-11-23T13:03:57.370Z,17.10
2022-11-23T13:07:26.764Z,17.10
2022-11-23T13:10:16.181Z,17.10
2022-11-23T13:13:01.257Z,17.10
2022-11-23T13:15:43.066Z,17.10
2022-11-23T13:18:14.152Z,17.20
2022-11-23T13:21:02.972Z,17.30
2022-11-23T13:23:37.333Z,17.50
2022-11-23T13:26:18.129Z,17.50
2022-11-23T13:28:46.346Z,17.40
2022-11-23T13:31:25.671Z,17.40
2022-11-23T13:33:55.190Z,17.40
2022-11-23T13:40:04.312Z,17.30
2022-11-23T13:42:33.460Z,17.20
2022-11-23T13:45:30.537Z,17.20
2022-11-23T13:48:34.082Z,17.20
2022-11-23T13:51:01.696Z,17.20
2022-11-23T13:53:31.510Z,17.10
2022-11-23T13:56:16.993Z,17.10
2022-11-23T13:58:51.813Z,17.10
2022-11-23T14:01:53.271Z,17.10
2022-11-23T14:04:21.630Z,17.10
2022-11-23T14:06:51.205Z,17.10
2022-11-23T14:09:22.152Z,17.10
2022-11-23T14:11:57.440Z,17.10
2022-11-23T14:14:27.685Z,17.10
2022-11-23T14:17:21.868Z,17.10
2022-11-23T14:20:09.989Z,17.20
2022-11-23T14:22:42.718Z,17.40
2022-11-23T14:25:17.951Z,17.40
2022-11-23T14:27:52.708Z,17.40
2022-11-23T14:30:30.013Z,17.40
2022-11-23T14:33:07.495Z,17.40
2022-11-23T14:35:42.475Z,17.40
2022-11-23T14:38:59.087Z,17.30
2022-11-23T14:41:27.751Z,17.30
2022-11-23T14:43:57.169Z,17.20
2022-11-23T14:46:25.818Z,17.20
2022-11-23T14:49:04.901Z,17.20
2022-11-23T14:51:32.826Z,17.20
2022-11-23T14:54:02.555Z,17.10
2022-11-23T14:56:33.472Z,17.20
2022-11-23T14:59:03.633Z,17.10
2022-11-23T15:01:31.747Z,17.10
2022-11-23T15:03:59.933Z,17.10
2022-11-23T15:06:29.754Z,17.20
2022-11-23T15:09:03.181Z,17.40
2022-11-23T15:11:31.079Z,17.40
2022-11-23T15:14:03.198Z,17.40
2022-11-23T15:16:39.523Z,17.40
2022-11-23T15:19:18.907Z,17.30
2022-11-23T15:21:46.797Z,17.30
2022-11-23T15:24:22.054Z,17.30
2022-11-23T15:26:50.032Z,17.30
2022-11-23T15:29:31.570Z,17.30
2022-11-23T15:32:28.822Z,17.20
2022-11-23T15:34:48.994Z,17.20
2022-11-23T15:37:18.320Z,17.20
2022-11-23T15:39:46.626Z,17.20
2022-11-23T15:42:16.600Z,17.20
2022-11-23T15:44:50.321Z,17.20
2022-11-23T15:47:20.917Z,17.10
2022-11-23T15:49:48.827Z,17.10
2022-11-23T15:52:17.430Z,17.20
2022-11-23T15:54:45.381Z,17.30
2022-11-23T15:57:17.479Z,17.40
2022-11-23T15:59:46.223Z,17.30
2022-11-23T16:02:16.576Z,17.30
2022-11-23T16:04:45.868Z,17.30
2022-11-23T16:07:23.387Z,17.30
2022-11-23T16:09:53.327Z,17.30
2022-11-23T16:12:28.679Z,17.30
2022-11-23T16:14:57.396Z,17.20
2022-11-23T16:17:25.949Z,17.20
2022-11-23T16:19:55.745Z,17.20
2022-11-23T16:22:26.479Z,17.20
2022-11-23T16:24:59.148Z,17.30
2022-11-23T16:27:27.039Z,17.30
2022-11-23T16:30:00.057Z,17.40
2022-11-23T16:32:31.174Z,17.40
2022-11-23T16:35:07.560Z,17.30
2022-11-23T16:37:35.879Z,17.30
2022-11-23T16:40:04.058Z,17.30
2022-11-23T16:42:31.977Z,17.30
2022-11-23T16:45:00.186Z,17.30
2022-11-23T16:47:28.237Z,17.20
2022-11-23T16:49:56.190Z,17.20
2022-11-23T16:52:25.699Z,17.20
2022-11-23T16:54:53.718Z,17.20
2022-11-23T16:57:25.436Z,17.30
2022-11-23T16:59:53.358Z,17.40
2022-11-23T17:02:21.262Z,17.40
2022-11-23T17:04:49.196Z,17.40
2022-11-23T17:07:17.788Z,17.40
2022-11-23T17:09:47.374Z,17.30
2022-11-23T17:12:17.272Z,17.30
2022-11-23T17:14:46.815Z,17.30
2022-11-23T17:17:17.373Z,17.30
2022-11-23T17:19:48.188Z,17.30
2022-11-23T17:22:16.534Z,17.30
2022-11-23T17:24:44.441Z,17.20
2022-11-23T17:27:16.219Z,17.30
2022-11-23T17:29:44.543Z,17.30
2022-11-23T17:32:13.158Z,17.30
2022-11-23T17:34:41.165Z,17.30
2022-11-23T17:37:10.990Z,17.20
2022-11-23T17:39:38.932Z,17.20
2022-11-23T17:42:06.847Z,17.20
2022-11-23T17:44:36.249Z,17.30
2022-11-23T17:47:04.141Z,17.50
2022-11-23T17:49:32.446Z,17.50
2022-11-23T17:52:00.521Z,17.50
2022-11-23T17:54:28.426Z,17.50
2022-11-23T17:56:57.655Z,17.50
2022-11-23T17:59:25.611Z,17.50
2022-11-23T18:01:55.088Z,17.50
2022-11-23T18:04:23.234Z,17.40
2022-11-23T18:06:51.189Z,17.40
2022-11-23T18:09:19.093Z,17.40
2022-11-23T18:11:47.035Z,17.30
2022-11-23T18:14:14.948Z,17.30
2022-11-23T18:16:42.852Z,17.30
2022-11-23T18:19:12.378Z,17.30
2022-11-23T18:21:40.289Z,17.30
2022-11-23T18:24:09.159Z,17.30
2022-11-23T18:26:37.112Z,17.30
2022-11-23T18:29:05.032Z,17.30
2022-11-23T18:31:33.175Z,17.30
2022-11-23T18:34:02.680Z,17.30
2022-11-23T18:36:31.959Z,17.30
2022-11-23T18:39:01.673Z,17.30
2022-11-23T18:41:29.597Z,17.20
2022-11-23T18:43:57.533Z,17.20
2022-11-23T18:46:25.513Z,17.30
2022-11-23T18:48:53.918Z,17.50
2022-11-23T18:51:22.103Z,17.60
2022-11-23T18:53:51.322Z,17.60
2022-11-23T18:56:19.300Z,17.60
2022-11-23T18:58:47.442Z,17.50
2022-11-23T19:01:17.676Z,17.50
2022-11-23T19:03:46.585Z,17.50
2022-11-23T19:06:15.093Z,17.50
2022-11-23T19:08:43.881Z,17.40
2022-11-23T19:11:16.221Z,17.40
2022-11-23T19:13:44.784Z,17.40
2022-11-23T19:16:14.070Z,17.30
2022-11-23T19:18:42.064Z,17.30
2022-11-23T19:21:14.232Z,17.30
2022-11-23T19:23:42.204Z,17.30
2022-11-23T19:26:10.289Z,17.30
2022-11-23T19:28:44.393Z,17.30
2022-11-23T19:31:13.117Z,17.30
2022-11-23T19:33:41.021Z,17.40
2022-11-23T19:36:09.321Z,17.50
2022-11-23T19:38:37.274Z,17.50
2022-11-23T19:41:05.234Z,17.50
2022-11-23T19:43:33.482Z,17.50
2022-11-23T19:46:03.413Z,17.50
2022-11-23T19:48:31.737Z,17.50
2022-11-23T19:51:00.587Z,17.50
2022-11-23T19:53:30.866Z,17.50
2022-11-23T19:56:03.072Z,17.40
2022-11-23T19:58:32.321Z,17.40
2022-11-23T20:01:02.193Z,17.30
2022-11-23T20:03:30.204Z,17.30
2022-11-23T20:05:58.903Z,17.40
2022-11-23T20:08:27.373Z,17.30
2022-11-23T20:10:55.287Z,17.30
2022-11-23T20:13:23.185Z,17.30
2022-11-23T20:15:51.191Z,17.30
2022-11-23T20:18:21.209Z,17.30
2022-11-23T20:20:51.582Z,17.30
2022-11-23T20:23:19.502Z,17.30
2022-11-23T20:25:47.411Z,17.30
2022-11-23T20:28:15.354Z,17.30
2022-11-23T20:30:43.428Z,17.30
2022-11-23T20:33:11.507Z,17.30
2022-11-23T20:35:40.754Z,17.40
2022-11-23T20:38:08.671Z,17.50
2022-11-23T20:40:36.605Z,17.60
2022-11-23T20:43:04.518Z,17.70
2022-11-23T20:45:32.428Z,17.60
2022-11-23T20:48:00.369Z,17.60
2022-11-23T20:50:28.925Z,17.60
2022-11-23T20:53:01.345Z,17.60
2022-11-23T20:55:29.275Z,17.50
2022-11-23T20:57:57.381Z,17.50
2022-11-23T21:00:25.344Z,17.50
2022-11-23T21:02:53.605Z,17.40
2022-11-23T21:05:21.654Z,17.40
2022-11-23T21:07:49.944Z,17.40
2022-11-23T21:10:37.205Z,17.40
2022-11-23T21:13:22.542Z,17.40
2022-11-23T21:15:50.458Z,17.40
2022-11-23T21:18:18.362Z,17.30
2022-11-23T21:20:46.464Z,17.30
2022-11-23T21:23:14.332Z,17.30
2022-11-23T21:25:43.645Z,17.30
2022-11-23T21:28:11.529Z,17.30
2022-11-23T21:30:39.394Z,17.30
2022-11-23T21:33:07.297Z,17.30
2022-11-23T21:35:35.796Z,17.30
2022-11-23T21:38:03.782Z,17.40
2022-11-23T21:40:31.856Z,17.50
2022-11-23T21:43:01.069Z,17.50
2022-11-23T21:45:28.931Z,17.60
2022-11-23T21:47:56.892Z,17.50
2022-11-23T21:50:24.826Z,17.50
2022-11-23T21:52:52.988Z,17.50
2022-11-23T21:55:20.894Z,17.50
2022-11-23T21:57:48.739Z,17.50
2022-11-23T22:00:18.977Z,17.40
2022-11-23T22:02:46.995Z,17.40
2022-11-23T22:05:14.947Z,17.30
2022-11-23T22:07:55.075Z,17.30
2022-11-23T22:10:30.977Z,17.30
2022-11-23T22:12:58.889Z,17.30
2022-11-23T22:15:28.911Z,17.30
2022-11-23T22:17:56.805Z,17.30
2022-11-23T22:20:24.709Z,17.30
2022-11-23T22:22:52.743Z,17.30
2022-11-23T22:25:21.159Z,17.30
2022-11-23T22:27:49.110Z,17.30
2022-11-23T22:30:18.034Z,17.30
2022-11-23T22:32:47.410Z,17.20
2022-11-23T22:35:15.527Z,17.20
2022-11-23T22:37:43.419Z,17.20
2022-11-23T22:40:12.369Z,17.40
2022-11-23T22:42:40.271Z,17.50
2022-11-23T22:45:09.200Z,17.60
2022-11-23T22:47:37.099Z,17.60
2022-11-23T22:50:07.526Z,17.50
2022-11-23T22:52:35.397Z,17.50
2022-11-23T22:55:04.125Z,17.50
2022-11-23T22:57:32.161Z,17.50
2022-11-23T23:00:00.020Z,17.50
2022-11-23T23:02:28.175Z,17.40
2022-11-23T23:04:56.124Z,17.40
2022-11-23T23:07:25.411Z,17.30
2022-11-23T23:09:53.409Z,17.40
2022-11-23T23:12:21.678Z,17.30
2022-11-23T23:14:49.566Z,17.30
2022-11-23T23:17:17.445Z,17.30
2022-11-23T23:19:45.360Z,17.30
2022-11-23T23:22:13.381Z,17.30
2022-11-23T23:24:42.750Z,17.30
2022-11-23T23:27:11.227Z,17.40
2022-11-23T23:29:39.468Z,17.50
2022-11-23T23:32:07.609Z,17.50
2022-11-23T23:34:35.636Z,17.50
2022-11-23T23:37:03.651Z,17.50
2022-11-23T23:39:31.675Z,17.40
2022-11-23T23:42:01.157Z,17.40
2022-11-23T23:44:29.082Z,17.40
2022-11-23T23:46:56.976Z,17.40
2022-11-23T23:49:26.265Z,17.40
2022-11-23T23:51:54.297Z,17.30
2022-11-23T23:54:23.021Z,17.30
2022-11-23T23:56:51.116Z,17.30
2022-11-23T23:59:23.453Z,17.30
